createdAt,value
2023-04-25T00:02:58.545Z,98433.06
2023-04-25T00:09:00.880Z,98436.25
2023-04-25T00:15:02.943Z,98441.78
2023-04-25T00:21:07.191Z,98448.06
2023-04-25T00:27:09.091Z,98449.00
2023-04-25T00:33:11.294Z,98436.75
2023-04-25T00:39:14.421Z,98441.97
2023-04-25T00:45:18.075Z,98441.00
2023-04-25T00:51:22.675Z,98446.25
2023-04-25T00:57:24.641Z,98438.44
2023-04-25T01:03:29.788Z,98428.47
2023-04-25T01:09:33.030Z,98438.22
2023-04-25T01:15:36.771Z,98433.97
2023-04-25T01:21:38.729Z,98429.88
2023-04-25T01:27:41.734Z,98424.72
2023-04-25T01:33:43.668Z,98425.38
2023-04-25T01:39:45.919Z,98424.13
2023-04-25T01:45:49.000Z,98421.28
2023-04-25T01:51:54.364Z,98423.72
2023-04-25T01:57:56.275Z,98432.94
2023-04-25T02:03:58.399Z,98427.38
2023-04-25T02:10:00.664Z,98431.25
2023-04-25T02:16:02.925Z,98426.88
2023-04-25T02:22:04.984Z,98424.91
2023-04-25T02:28:06.876Z,98423.19
2023-04-25T02:34:08.871Z,98418.03
2023-04-25T02:40:11.411Z,98423.53
2023-04-25T02:46:13.313Z,98428.47
2023-04-25T02:52:15.409Z,98419.53
2023-04-25T02:58:17.308Z,98402.00
2023-04-25T03:04:20.336Z,98411.25
2023-04-25T03:10:22.290Z,98413.25
2023-04-25T03:16:25.029Z,98420.66
2023-04-25T03:22:26.973Z,98423.69
2023-04-25T03:28:29.227Z,98430.84
2023-04-25T03:34:31.603Z,98432.34
2023-04-25T03:40:33.572Z,98440.13
2023-04-25T03:46:35.495Z,98443.94
2023-04-25T03:52:37.420Z,98446.94
2023-04-25T03:58:39.336Z,98461.88
2023-04-25T04:04:41.664Z,98466.31
2023-04-25T04:10:43.702Z,98467.03
2023-04-25T04:16:45.993Z,98464.47
2023-04-25T04:22:48.180Z,98476.13
2023-04-25T04:28:55.342Z,98482.19
2023-04-25T04:34:57.442Z,98483.81
2023-04-25T04:40:59.331Z,98495.25
2023-04-25T04:47:01.441Z,98494.44
2023-04-25T04:53:05.209Z,98494.34
2023-04-25T04:59:08.055Z,98500.66
2023-04-25T05:05:10.073Z,98510.03
2023-04-25T05:11:12.373Z,98522.47
2023-04-25T05:17:14.304Z,98529.25
2023-04-25T05:23:16.435Z,98533.47
2023-04-25T05:29:18.318Z,98544.28
2023-04-25T05:35:20.264Z,98549.69
2023-04-25T05:41:22.176Z,98550.81
2023-04-25T05:47:24.109Z,98558.25
2023-04-25T05:53:25.993Z,98576.72
2023-04-25T05:59:27.899Z,98580.81
2023-04-25T06:05:30.325Z,98590.66
2023-04-25T06:11:32.347Z,98582.53
2023-04-25T06:17:34.704Z,98606.00
2023-04-25T06:23:36.620Z,98602.53
2023-04-25T06:29:38.544Z,98606.69
2023-04-25T06:35:40.489Z,98623.47
2023-04-25T06:41:42.368Z,98620.72
2023-04-25T06:47:44.277Z,98626.94
2023-04-25T06:53:46.255Z,98630.22
2023-04-25T06:59:48.144Z,98629.84
2023-04-25T07:05:50.180Z,98636.44
2023-04-25T07:11:52.129Z,98637.28
2023-04-25T07:17:54.056Z,98643.56
2023-04-25T07:23:56.001Z,98645.53
2023-04-25T07:29:58.613Z,98656.13
2023-04-25T07:36:00.824Z,98656.22
2023-04-25T07:42:03.334Z,98661.34
2023-04-25T07:48:05.497Z,98663.72
2023-04-25T07:54:07.887Z,98671.56
2023-04-25T08:00:10.574Z,98668.63
2023-04-25T08:06:12.695Z,98675.16
2023-04-25T08:12:14.972Z,98682.41
2023-04-25T08:18:17.726Z,98678.56
2023-04-25T08:24:19.879Z,98692.34
2023-04-25T08:30:22.094Z,98696.47
2023-04-25T08:42:36.237Z,98693.81
2023-04-25T08:48:38.376Z,98716.25
2023-04-25T08:54:48.281Z,98728.94
2023-04-25T09:00:51.991Z,98738.47
2023-04-25T09:06:53.914Z,98741.38
2023-04-25T09:13:21.644Z,98755.38
2023-04-25T09:19:38.926Z,98762.75
2023-04-25T09:25:43.985Z,98761.53
2023-04-25T09:31:45.889Z,98781.25
2023-04-25T09:37:47.830Z,98786.41
2023-04-25T09:43:51.463Z,98788.28
2023-04-25T09:49:56.006Z,98796.56
2023-04-25T09:56:00.762Z,98812.38
2023-04-25T10:02:03.688Z,98816.72
2023-04-25T10:08:07.626Z,98813.44
2023-04-25T10:14:10.769Z,98817.94
2023-04-25T10:20:13.966Z,98823.28
2023-04-25T10:26:17.270Z,98813.69
2023-04-25T10:32:19.481Z,98820.22
2023-04-25T10:38:21.558Z,98828.41
2023-04-25T10:44:23.609Z,98833.59
2023-04-25T10:50:40.716Z,98838.94
2023-04-25T10:56:45.552Z,98849.47
2023-04-25T11:02:54.221Z,98846.78
2023-04-25T11:08:56.314Z,98846.19
2023-04-25T11:15:06.903Z,98843.28
2023-04-25T11:21:09.110Z,98852.75
2023-04-25T11:27:11.120Z,98862.56
2023-04-25T11:33:13.045Z,98868.41
2023-04-25T11:39:16.240Z,98867.41
2023-04-25T11:45:19.713Z,98867.47
2023-04-25T11:51:21.828Z,98875.53
2023-04-25T11:57:23.748Z,98889.38
2023-04-25T12:03:28.323Z,98888.53
2023-04-25T12:09:34.835Z,98884.63
2023-04-25T12:15:37.497Z,98893.56
2023-04-25T12:21:50.508Z,98887.59
2023-04-25T12:28:24.935Z,98870.03
2023-04-25T12:34:26.937Z,98883.47
2023-04-25T12:40:28.816Z,98890.16
2023-04-25T12:46:30.890Z,98886.31
2023-04-25T12:52:32.825Z,98879.06
2023-04-25T12:58:35.223Z,98891.56
2023-04-25T13:04:37.312Z,98910.66
2023-04-25T13:10:40.386Z,98903.97
2023-04-25T13:16:42.576Z,98905.78
2023-04-25T13:22:46.623Z,98912.25
2023-04-25T13:28:48.554Z,98913.25
2023-04-25T13:34:51.750Z,98915.78
2023-04-25T13:40:54.321Z,98913.25
2023-04-25T13:46:56.373Z,98916.22
2023-04-25T13:52:58.306Z,98921.25
2023-04-25T13:59:00.211Z,98925.03
2023-04-25T14:05:04.358Z,98919.16
2023-04-25T14:11:06.552Z,98923.81
2023-04-25T14:17:09.753Z,98913.50
2023-04-25T14:23:11.688Z,98909.31
2023-04-25T14:29:13.990Z,98918.28
2023-04-25T14:35:16.045Z,98912.09
2023-04-25T14:41:18.013Z,98918.53
2023-04-25T14:47:19.929Z,98925.38
2023-04-25T14:53:21.806Z,98921.13
2023-04-25T14:59:24.329Z,98930.69
2023-04-25T15:05:26.539Z,98903.03
2023-04-25T15:11:28.619Z,98923.47
2023-04-25T15:17:32.114Z,98917.00
2023-04-25T15:23:34.123Z,98933.56
2023-04-25T15:29:36.755Z,98942.47
2023-04-25T15:35:38.696Z,98956.03
2023-04-25T15:41:40.647Z,98969.00
2023-04-25T15:47:43.044Z,98970.50
2023-04-25T15:53:44.970Z,98983.22
2023-04-25T15:59:49.020Z,98985.28
2023-04-25T16:05:51.092Z,98987.63
2023-04-25T16:11:53.258Z,98982.09
2023-04-25T16:17:55.217Z,98978.47
2023-04-25T16:23:57.160Z,98991.69
2023-04-25T16:29:59.105Z,98990.41
2023-04-25T16:36:01.013Z,98988.38
2023-04-25T16:42:04.927Z,98993.31
2023-04-25T16:48:07.153Z,98994.72
2023-04-25T16:54:09.176Z,98992.50
2023-04-25T17:00:12.990Z,98999.06
2023-04-25T17:06:15.026Z,99011.59
2023-04-25T17:12:19.550Z,99001.94
2023-04-25T17:18:24.479Z,99003.84
2023-04-25T17:24:26.591Z,99031.38
2023-04-25T17:30:28.479Z,99041.16
2023-04-25T17:36:30.810Z,99031.94
2023-04-25T17:42:32.752Z,99043.25
2023-04-25T17:48:34.672Z,99044.72
2023-04-25T17:54:36.595Z,99047.47
2023-04-25T18:00:39.123Z,99061.97
2023-04-25T18:06:41.414Z,99066.47
2023-04-25T18:12:43.353Z,99067.81
2023-04-25T18:18:52.825Z,99078.47
2023-04-25T18:24:55.221Z,99083.84
2023-04-25T18:30:57.979Z,99095.81
2023-04-25T18:36:59.897Z,99107.06
2023-04-25T18:43:01.792Z,99116.66
2023-04-25T18:49:04.043Z,99128.34
2023-04-25T18:55:06.560Z,99138.75
2023-04-25T19:01:09.003Z,99152.16
2023-04-25T19:07:11.217Z,99151.75
2023-04-25T19:13:13.906Z,99166.22
2023-04-25T19:19:15.776Z,99159.06
2023-04-25T19:25:17.766Z,99171.03
2023-04-25T19:31:19.934Z,99164.91
2023-04-25T19:37:21.930Z,99155.13
2023-04-25T19:43:23.878Z,99170.72
2023-04-25T19:49:27.107Z,99172.34
2023-04-25T19:55:29.128Z,99183.34
2023-04-25T20:01:31.185Z,99188.88
2023-04-25T20:07:33.362Z,99194.50
2023-04-25T20:13:35.257Z,99198.81
2023-04-25T20:19:38.215Z,99203.69
2023-04-25T20:25:40.549Z,99197.91
2023-04-25T20:31:42.617Z,99195.16
2023-04-25T20:37:44.714Z,99196.16
2023-04-25T20:43:47.313Z,99199.81
2023-04-25T20:49:49.917Z,99205.59
2023-04-25T20:55:52.271Z,99201.34
2023-04-25T21:01:54.753Z,99209.31
2023-04-25T21:07:57.545Z,99205.34
2023-04-25T21:13:59.456Z,99207.34
2023-04-25T21:20:01.350Z,99219.16
2023-04-25T21:26:03.303Z,99231.31
2023-04-25T21:32:06.238Z,99232.41
2023-04-25T21:38:08.154Z,99235.38
2023-04-25T21:44:12.478Z,99243.53
2023-04-25T21:50:15.214Z,99238.53
2023-04-25T21:56:17.101Z,99236.06
2023-04-25T22:02:19.340Z,99234.06
2023-04-25T22:08:21.877Z,99240.22
2023-04-25T22:14:25.114Z,99244.84
2023-04-25T22:20:27.976Z,99252.84
2023-04-25T22:26:30.205Z,99254.31
2023-04-25T22:32:32.183Z,99253.81
2023-04-25T22:38:34.121Z,99260.63
2023-04-25T22:44:36.666Z,99270.66
2023-04-25T22:50:40.576Z,99269.94
2023-04-25T22:56:42.462Z,99276.16
2023-04-25T23:02:46.230Z,99276.59
2023-04-25T23:08:48.714Z,99290.75
2023-04-25T23:14:52.690Z,99284.63
2023-04-25T23:20:54.577Z,99288.31
2023-04-25T23:26:56.793Z,99283.50
2023-04-25T23:32:58.779Z,99293.38
2023-04-25T23:39:02.123Z,99288.00
2023-04-25T23:45:06.784Z,99298.97
2023-04-25T23:51:08.710Z,99310.69
2023-04-25T23:57:12.187Z,99299.09
